createdAt,value
2022-11-17T00:28:11.197Z,49.10
2022-11-17T01:50:29.645Z,41.90
2022-11-17T02:26:10.948Z,39.50
2022-11-17T03:42:17.401Z,366.50
2022-11-17T03:44:51.123Z,305.90
2022-11-17T03:47:21.106Z,257.30
2022-11-17T03:50:06.312Z,237.20
2022-11-17T03:52:36.719Z,299.70
2022-11-17T03:55:06.605Z,79.50
2022-11-17T03:57:41.609Z,164.50
2022-11-17T04:00:12.851Z,202.50
2022-11-17T04:02:43.407Z,113.50
2022-11-17T04:05:12.723Z,99.70
2022-11-17T04:07:46.197Z,42.80
2022-11-17T04:10:19.782Z,40.20
2022-11-17T04:13:07.846Z,28.70
2022-11-17T04:15:54.486Z,31.20
2022-11-17T04:18:24.329Z,30.00
2022-11-17T04:20:56.016Z,27.70
2022-11-17T04:23:26.063Z,27.00
2022-11-17T04:26:15.237Z,27.50
2022-11-17T04:28:46.882Z,31.90
2022-11-17T04:31:27.083Z,26.20
2022-11-17T04:34:03.382Z,26.70
2022-11-17T04:36:35.375Z,24.60
2022-11-17T04:39:03.796Z,29.60
2022-11-17T04:41:50.441Z,27.50
2022-11-17T04:44:18.933Z,45.00
2022-11-17T04:46:47.150Z,39.00
2022-11-17T04:49:17.481Z,48.90
2022-11-17T04:51:46.213Z,30.10
2022-11-17T04:54:16.630Z,35.40
2022-11-17T04:56:45.399Z,29.00
2022-11-17T04:59:13.482Z,35.80
2022-11-17T05:01:41.650Z,37.00
2022-11-17T05:04:12.882Z,35.90
2022-11-17T05:06:43.267Z,43.60
2022-11-17T05:09:16.925Z,52.10
2022-11-17T05:12:03.781Z,62.70
2022-11-17T05:14:31.854Z,39.10
2022-11-17T05:17:10.965Z,50.60
2022-11-17T05:19:42.622Z,57.90
2022-11-17T05:22:30.950Z,51.50
2022-11-17T05:24:59.171Z,39.20
2022-11-17T05:27:27.438Z,47.70
2022-11-17T05:29:55.531Z,39.60
2022-11-17T05:32:23.530Z,37.30
2022-11-17T05:34:51.646Z,46.60
2022-11-17T05:37:19.591Z,46.60
2022-11-17T05:39:47.620Z,36.80
2022-11-17T05:42:15.725Z,34.60
2022-11-17T05:44:43.632Z,40.80
2022-11-17T05:47:11.630Z,39.90
2022-11-17T05:49:39.699Z,38.50
2022-11-17T05:52:08.192Z,34.90
2022-11-17T05:54:36.976Z,33.30
2022-11-17T05:57:14.411Z,32.70
2022-11-17T05:59:54.206Z,41.70
2022-11-17T06:02:26.873Z,36.70
2022-11-17T06:04:54.774Z,42.40
2022-11-17T06:07:22.934Z,42.60
2022-11-17T06:09:52.038Z,47.60
2022-11-17T06:12:19.993Z,35.90
2022-11-17T06:14:47.950Z,38.00
2022-11-17T06:17:31.031Z,33.10
2022-11-17T06:20:08.449Z,31.10
2022-11-17T06:22:36.807Z,32.90
2022-11-17T06:25:08.656Z,29.40
2022-11-17T06:27:39.131Z,29.40
2022-11-17T06:30:07.941Z,26.90
2022-11-17T06:32:38.878Z,27.30
2022-11-17T06:35:08.809Z,28.10
2022-11-17T06:37:36.794Z,27.40
2022-11-17T06:40:05.172Z,26.40
2022-11-17T06:42:51.846Z,21.90
2022-11-17T06:45:19.709Z,23.80
2022-11-17T06:47:47.616Z,22.50
2022-11-17T06:50:15.989Z,24.80
2022-11-17T06:52:43.965Z,29.10
2022-11-17T06:55:12.171Z,31.10
2022-11-17T06:57:40.253Z,33.90
2022-11-17T07:00:08.782Z,27.60
2022-11-17T07:02:37.345Z,30.00
2022-11-17T07:05:05.809Z,28.30
2022-11-17T07:07:33.868Z,29.20
2022-11-17T07:10:01.991Z,30.60
2022-11-17T07:12:30.086Z,31.60
2022-11-17T07:14:58.278Z,25.70
2022-11-17T07:17:26.425Z,31.40
2022-11-17T07:19:55.070Z,27.40
2022-11-17T07:22:23.140Z,29.40
2022-11-17T07:24:51.777Z,27.50
2022-11-17T07:27:19.775Z,26.90
2022-11-17T07:29:47.774Z,26.10
2022-11-17T07:32:16.010Z,33.20
2022-11-17T07:34:44.057Z,27.30
2022-11-17T07:37:12.149Z,29.80
2022-11-17T07:39:40.149Z,28.40
2022-11-17T07:42:08.190Z,28.00
2022-11-17T07:44:36.278Z,30.00
2022-11-17T07:47:04.294Z,27.60
2022-11-17T07:49:32.344Z,29.70
2022-11-17T07:52:01.701Z,24.20
2022-11-17T07:54:29.685Z,24.30
2022-11-17T07:56:57.633Z,26.30
2022-11-17T07:59:25.669Z,27.60
2022-11-17T08:01:53.692Z,28.70
2022-11-17T08:04:21.635Z,28.70
2022-11-17T08:06:49.803Z,25.50
2022-11-17T08:09:18.005Z,26.50
2022-11-17T08:11:45.998Z,23.70
2022-11-17T08:14:14.041Z,24.20
2022-11-17T08:16:42.211Z,24.90
2022-11-17T08:19:12.162Z,22.90
2022-11-17T08:21:41.551Z,21.00
2022-11-17T08:24:11.969Z,24.50
2022-11-17T08:26:40.017Z,26.10
2022-11-17T08:29:07.989Z,25.90
2022-11-17T08:31:36.082Z,22.60
2022-11-17T08:34:04.185Z,29.10
2022-11-17T08:36:32.278Z,26.30
2022-11-17T08:39:00.349Z,28.00
2022-11-17T08:41:28.271Z,28.10
2022-11-17T08:43:56.174Z,24.40
2022-11-17T08:46:26.644Z,24.70
2022-11-17T08:48:57.107Z,22.30
2022-11-17T08:51:25.584Z,17.60
2022-11-17T08:53:53.622Z,20.30
2022-11-17T08:56:21.947Z,13.70
2022-11-17T08:58:49.976Z,13.80
2022-11-17T09:01:18.376Z,12.80
2022-11-17T09:03:47.961Z,12.90
2022-11-17T09:06:17.909Z,11.80
2022-11-17T09:08:47.442Z,11.20
2022-11-17T09:11:16.934Z,12.10
2022-11-17T09:13:47.160Z,12.40
2022-11-17T09:16:16.911Z,13.10
2022-11-17T09:18:44.995Z,10.10
2022-11-17T09:21:15.696Z,10.40
2022-11-17T09:23:43.931Z,9.50
2022-11-17T09:26:14.365Z,9.40
2022-11-17T09:28:44.280Z,10.60
2022-11-17T09:31:18.071Z,10.40
2022-11-17T09:33:46.784Z,8.90
2022-11-17T09:36:16.422Z,6.90
2022-11-17T09:38:46.969Z,6.70
2022-11-17T09:41:22.868Z,7.30
2022-11-17T09:44:03.389Z,7.00
2022-11-17T09:46:58.655Z,9.30
2022-11-17T09:49:59.549Z,7.10
2022-11-17T09:52:46.480Z,4.20
2022-11-17T09:55:14.357Z,4.60
2022-11-17T09:57:47.636Z,4.10
2022-11-17T10:00:19.992Z,3.90
2022-11-17T10:02:48.863Z,2.90
2022-11-17T10:05:27.257Z,2.10
2022-11-17T10:08:00.453Z,2.80
2022-11-17T10:10:43.965Z,3.10
2022-11-17T10:13:34.139Z,1.90
2022-11-17T10:16:06.141Z,1.60
2022-11-17T10:18:39.233Z,1.90
2022-11-17T10:21:09.372Z,2.20
2022-11-17T10:23:46.196Z,2.40
2022-11-17T10:26:16.028Z,2.40
2022-11-17T10:28:44.116Z,2.00
2022-11-17T10:31:15.434Z,2.80
2022-11-17T10:33:47.786Z,2.20
2022-11-17T10:36:30.512Z,1.90
2022-11-17T10:39:00.646Z,2.40
2022-11-17T10:41:37.635Z,1.80
2022-11-17T10:44:23.160Z,2.20
2022-11-17T10:47:08.223Z,2.30
2022-11-17T10:49:39.911Z,2.40
2022-11-17T10:52:14.028Z,1.80
2022-11-17T10:54:42.632Z,2.40
2022-11-17T10:57:20.477Z,2.10
2022-11-17T10:59:57.884Z,2.90
2022-11-17T11:02:28.758Z,3.10
2022-11-17T11:05:18.152Z,2.30
2022-11-17T11:08:23.522Z,1.70
2022-11-17T11:11:33.320Z,1.70
2022-11-17T11:14:30.503Z,1.90
2022-11-17T11:16:58.868Z,1.80
2022-11-17T11:19:26.901Z,2.10
2022-11-17T11:22:34.716Z,1.60
2022-11-17T11:25:05.763Z,1.60
2022-11-17T11:27:58.588Z,1.80
2022-11-17T11:30:27.313Z,2.20
2022-11-17T11:33:20.681Z,4.20
2022-11-17T11:36:04.584Z,2.70
2022-11-17T11:38:50.208Z,2.90
2022-11-17T11:41:48.003Z,3.60
2022-11-17T11:44:23.146Z,3.70
2022-11-17T11:47:03.345Z,4.40
2022-11-17T11:49:55.852Z,3.90
2022-11-17T11:52:38.372Z,4.60
2022-11-17T11:55:19.095Z,4.60
2022-11-17T11:58:01.035Z,6.50
2022-11-17T12:00:29.091Z,5.10
2022-11-17T12:03:06.858Z,3.90
2022-11-17T12:06:28.526Z,4.80
2022-11-17T12:09:34.113Z,5.20
2022-11-17T12:12:14.773Z,7.20
2022-11-17T12:15:18.568Z,3.20
2022-11-17T12:17:57.179Z,3.00
2022-11-17T12:20:31.159Z,3.60
2022-11-17T12:23:13.779Z,2.80
2022-11-17T12:25:52.300Z,2.70
2022-11-17T12:28:38.417Z,4.60
2022-11-17T12:31:10.890Z,2.40
2022-11-17T12:33:54.243Z,2.60
2022-11-17T12:36:30.642Z,3.70
2022-11-17T12:39:01.483Z,3.20
2022-11-17T12:41:48.253Z,2.60
2022-11-17T12:44:38.088Z,7.40
2022-11-17T12:47:15.441Z,2.40
2022-11-17T12:50:04.009Z,2.80
2022-11-17T12:53:14.808Z,2.60
2022-11-17T12:55:58.175Z,3.40
2022-11-17T12:58:38.312Z,3.90
2022-11-17T13:01:36.059Z,2.70
2022-11-17T13:04:14.973Z,3.30
2022-11-17T13:07:06.410Z,5.10
2022-11-17T13:09:36.642Z,3.70
2022-11-17T13:12:10.706Z,3.10
2022-11-17T13:14:56.005Z,3.40
2022-11-17T13:17:47.685Z,3.50
2022-11-17T13:20:27.039Z,6.00
2022-11-17T13:23:26.188Z,3.10
2022-11-17T13:26:15.906Z,3.00
2022-11-17T13:28:45.169Z,5.70
2022-11-17T13:31:18.739Z,3.30
2022-11-17T13:34:07.506Z,3.70
2022-11-17T13:36:36.297Z,4.00
2022-11-17T13:39:04.392Z,3.50
2022-11-17T13:41:38.808Z,4.30
2022-11-17T13:44:13.482Z,4.30
2022-11-17T13:46:41.868Z,4.90
2022-11-17T13:49:39.303Z,3.30
2022-11-17T13:52:29.804Z,2.40
2022-11-17T13:55:02.358Z,4.30
2022-11-17T13:57:31.178Z,4.30
2022-11-17T14:00:01.348Z,3.70
2022-11-17T14:02:29.957Z,4.60
2022-11-17T14:05:18.453Z,3.60
2022-11-17T14:07:47.079Z,2.90
2022-11-17T14:10:28.052Z,2.30
2022-11-17T14:13:02.340Z,2.90
2022-11-17T14:15:31.819Z,3.20
2022-11-17T14:18:02.794Z,2.20
2022-11-17T14:20:33.525Z,2.40
2022-11-17T14:23:06.131Z,2.20
2022-11-17T14:25:54.339Z,3.00
2022-11-17T14:28:23.362Z,2.80
2022-11-17T14:30:53.648Z,2.00
2022-11-17T14:33:22.282Z,2.80
2022-11-17T14:35:55.996Z,2.40
2022-11-17T14:38:24.370Z,2.50
2022-11-17T14:40:53.980Z,2.60
2022-11-17T14:43:22.620Z,3.20
2022-11-17T14:45:50.755Z,3.60
2022-11-17T14:48:20.380Z,2.80
2022-11-17T14:50:48.829Z,4.60
2022-11-17T14:53:16.964Z,3.10
2022-11-17T14:55:45.101Z,2.20
2022-11-17T14:58:13.143Z,2.40
2022-11-17T15:00:41.173Z,2.40
2022-11-17T15:03:09.395Z,2.30
2022-11-17T15:05:43.647Z,4.70
2022-11-17T15:08:12.328Z,5.10
2022-11-17T15:10:45.535Z,8.10
2022-11-17T15:13:13.566Z,7.30
2022-11-17T15:15:41.554Z,4.10
2022-11-17T15:18:12.682Z,6.30
2022-11-17T15:20:41.102Z,3.20
2022-11-17T15:23:09.126Z,2.40
2022-11-17T15:25:38.939Z,2.20
2022-11-17T15:28:06.837Z,2.80
2022-11-17T15:30:34.883Z,5.10
2022-11-17T15:33:02.951Z,3.80
2022-11-17T15:35:30.918Z,2.30
2022-11-17T15:37:58.875Z,2.50
2022-11-17T15:40:26.914Z,2.50
2022-11-17T15:42:54.884Z,2.80
2022-11-17T15:45:22.845Z,2.70
2022-11-17T15:47:50.894Z,2.80
2022-11-17T15:50:19.690Z,2.70
2022-11-17T15:53:04.788Z,3.90
2022-11-17T15:55:35.305Z,7.50
2022-11-17T15:58:04.129Z,3.70
2022-11-17T16:00:33.896Z,3.90
2022-11-17T16:03:01.950Z,2.70
2022-11-17T16:05:29.894Z,3.50
2022-11-17T16:07:57.838Z,5.20
2022-11-17T16:10:27.367Z,5.80
2022-11-17T16:12:56.523Z,6.40
2022-11-17T16:15:24.994Z,6.10
2022-11-17T16:17:53.427Z,4.20
2022-11-17T16:20:21.572Z,4.80
2022-11-17T16:22:49.600Z,5.60
2022-11-17T16:25:17.632Z,5.30
2022-11-17T16:27:45.653Z,4.50
2022-11-17T16:30:13.811Z,5.80
2022-11-17T16:32:41.719Z,4.90
2022-11-17T16:35:09.757Z,5.40
2022-11-17T16:37:37.810Z,5.40
2022-11-17T16:40:06.395Z,5.90
2022-11-17T16:42:34.469Z,6.00
2022-11-17T16:45:02.615Z,6.10
2022-11-17T16:47:32.273Z,10.10
2022-11-17T16:50:00.182Z,7.30
2022-11-17T16:52:28.349Z,7.40
2022-11-17T16:55:00.428Z,7.40
2022-11-17T16:57:32.579Z,7.90
2022-11-17T17:00:00.519Z,7.00
2022-11-17T17:02:28.501Z,7.10
2022-11-17T17:04:56.402Z,7.00
2022-11-17T17:07:24.535Z,6.50
2022-11-17T17:09:52.630Z,6.90
2022-11-17T17:12:20.714Z,8.10
2022-11-17T17:14:48.718Z,7.20
2022-11-17T17:17:16.731Z,7.30
2022-11-17T17:19:44.703Z,7.00
2022-11-17T17:22:13.008Z,8.60
2022-11-17T17:24:41.305Z,6.90
2022-11-17T17:27:09.328Z,7.50
2022-11-17T17:29:37.437Z,8.60
2022-11-17T17:32:05.674Z,8.20
2022-11-17T17:34:33.682Z,11.90
2022-11-17T17:37:01.649Z,14.10
2022-11-17T17:39:29.780Z,17.40
2022-11-17T17:41:57.807Z,11.70
2022-11-17T17:44:26.000Z,12.90
2022-11-17T17:46:54.043Z,10.90
2022-11-17T17:49:22.054Z,12.60
2022-11-17T17:51:50.073Z,12.20
2022-11-17T17:54:20.916Z,16.70
2022-11-17T17:56:49.010Z,10.90
2022-11-17T17:59:17.432Z,11.00
2022-11-17T18:01:47.645Z,12.80
2022-11-17T18:04:16.960Z,12.30
2022-11-17T18:06:48.014Z,10.50
2022-11-17T18:09:20.702Z,12.20
2022-11-17T18:11:51.027Z,13.20
2022-11-17T18:14:24.708Z,9.90
2022-11-17T18:16:53.555Z,11.40
2022-11-17T18:19:22.341Z,14.30
2022-11-17T18:21:50.476Z,11.60
2022-11-17T18:24:21.684Z,12.00
2022-11-17T18:26:49.815Z,11.20
2022-11-17T18:29:19.744Z,12.80
2022-11-17T18:31:49.425Z,13.40
2022-11-17T18:34:19.034Z,13.90
2022-11-17T18:36:48.971Z,13.60
2022-11-17T18:39:17.755Z,11.00
2022-11-17T18:41:46.083Z,11.50
2022-11-17T18:44:16.884Z,10.90
2022-11-17T18:46:45.230Z,14.90
2022-11-17T18:49:13.322Z,16.00
2022-11-17T18:51:41.338Z,16.20
2022-11-17T18:54:11.200Z,10.70
2022-11-17T18:56:40.114Z,12.80
2022-11-17T18:59:11.850Z,11.30
2022-11-17T19:01:42.292Z,11.40
2022-11-17T19:04:12.769Z,10.80
2022-11-17T19:06:40.794Z,8.80
2022-11-17T19:09:08.928Z,10.60
2022-11-17T19:11:37.068Z,14.60
2022-11-17T19:14:07.830Z,10.00
2022-11-17T19:16:44.549Z,13.60
2022-11-17T19:19:14.273Z,13.60
2022-11-17T19:21:43.299Z,11.50
2022-11-17T19:24:11.842Z,10.30
2022-11-17T19:26:39.985Z,11.00
2022-11-17T19:29:16.223Z,12.20
2022-11-17T19:31:46.928Z,14.50
2022-11-17T19:34:15.915Z,15.70
2022-11-17T19:36:44.978Z,12.80
2022-11-17T19:39:14.243Z,15.90
2022-11-17T19:41:45.282Z,11.90
2022-11-17T19:44:13.616Z,14.90
2022-11-17T19:46:42.698Z,18.30
2022-11-17T19:49:11.696Z,19.30
2022-11-17T19:51:41.361Z,18.60
2022-11-17T19:54:10.252Z,18.00
2022-11-17T19:56:38.630Z,16.60
2022-11-17T19:59:09.661Z,18.10
2022-11-17T20:01:40.638Z,19.80
2022-11-17T20:04:09.117Z,19.40
2022-11-17T20:06:38.691Z,19.20
2022-11-17T20:09:12.486Z,18.60
2022-11-17T20:11:40.952Z,16.70
2022-11-17T20:14:09.242Z,19.10
2022-11-17T20:16:38.859Z,18.80
2022-11-17T20:19:07.235Z,16.90
2022-11-17T20:21:35.308Z,14.60
2022-11-17T20:24:03.921Z,17.20
2022-11-17T20:26:34.135Z,14.20
2022-11-17T20:29:02.299Z,16.80
2022-11-17T20:31:35.374Z,16.30
2022-11-17T20:34:05.564Z,16.50
2022-11-17T20:36:35.344Z,24.50
2022-11-17T20:39:06.214Z,20.40
2022-11-17T20:41:34.246Z,22.30
2022-11-17T20:44:03.425Z,24.70
2022-11-17T20:46:31.613Z,17.50
2022-11-17T20:48:59.686Z,21.60
2022-11-17T20:51:27.734Z,22.80
2022-11-17T20:53:55.751Z,22.00
2022-11-17T20:56:23.909Z,22.20
2022-11-17T20:58:51.961Z,19.90
2022-11-17T21:01:22.836Z,21.50
2022-11-17T21:03:52.160Z,23.80
2022-11-17T21:06:25.067Z,19.30
2022-11-17T21:08:53.136Z,19.50
2022-11-17T21:11:43.488Z,21.20
2022-11-17T21:14:13.585Z,25.40
2022-11-17T21:16:45.774Z,25.50
2022-11-17T21:23:59.894Z,25.10
2022-11-17T21:26:28.647Z,25.90
2022-11-17T21:29:00.444Z,21.70
2022-11-17T21:31:32.002Z,30.30
2022-11-17T21:34:02.917Z,26.50
2022-11-17T21:36:32.899Z,29.90
2022-11-17T21:39:01.226Z,30.80
2022-11-17T21:42:20.570Z,35.50
2022-11-17T21:44:48.759Z,27.50
2022-11-17T21:47:24.090Z,27.60
2022-11-17T21:49:52.973Z,32.50
2022-11-17T21:57:00.390Z,25.80
2022-11-17T21:59:28.576Z,27.80
2022-11-17T22:01:56.639Z,26.40
2022-11-17T22:04:25.509Z,28.00
2022-11-17T22:06:53.562Z,26.60
2022-11-17T22:09:21.572Z,27.50
2022-11-17T22:11:51.483Z,27.80
2022-11-17T22:14:20.416Z,22.00
2022-11-17T22:16:53.724Z,21.90
2022-11-17T22:19:24.708Z,22.40
2022-11-17T22:21:54.307Z,21.20
2022-11-17T22:24:22.940Z,22.70
2022-11-17T22:26:51.802Z,22.20
2022-11-17T22:29:21.886Z,22.10
2022-11-17T22:31:50.830Z,21.60
2022-11-17T22:34:18.909Z,19.90
2022-11-17T22:36:47.077Z,33.70
2022-11-17T22:39:16.360Z,23.10
2022-11-17T22:41:44.602Z,20.40
2022-11-17T22:44:16.496Z,24.40
2022-11-17T22:46:45.725Z,22.70
2022-11-17T22:49:13.968Z,24.30
2022-11-17T22:52:00.972Z,25.20
2022-11-17T22:54:30.505Z,29.10
2022-11-17T22:56:58.949Z,29.90
2022-11-17T22:59:28.874Z,30.20
2022-11-17T23:01:58.264Z,28.60
2022-11-17T23:04:26.503Z,28.20
2022-11-17T23:06:54.633Z,28.20
2022-11-17T23:09:22.839Z,22.80
2022-11-17T23:11:51.015Z,22.00
2022-11-17T23:14:19.125Z,20.40
2022-11-17T23:16:47.233Z,18.80
2022-11-17T23:19:15.514Z,16.90
2022-11-17T23:21:44.079Z,17.50
2022-11-17T23:24:14.520Z,17.50
2022-11-17T23:26:42.999Z,14.00
2022-11-17T23:29:11.306Z,15.30
2022-11-17T23:31:39.759Z,16.20
2022-11-17T23:34:10.522Z,17.60
2022-11-17T23:36:38.941Z,16.90
2022-11-17T23:39:07.304Z,17.60
2022-11-17T23:41:35.553Z,18.20
2022-11-17T23:44:04.041Z,17.10
2022-11-17T23:46:32.186Z,15.60
2022-11-17T23:49:00.287Z,17.90
2022-11-17T23:51:30.004Z,14.60
2022-11-17T23:54:01.384Z,16.60
2022-11-17T23:56:33.791Z,16.70
2022-11-17T23:59:01.918Z,17.70
